
<gpx xmlns="http://www.topografix.com/GPX/1/1" xmlns:gpxx="http://www.garmin.com/xmlschemas/GpxExtensions/v3" xmlns:xsi="http://www.w3.org/2001/XMLSchema-instance" version="1.1" creator="Adze - http://kobotsw.com/apps/adze" xsi:schemaLocation="http://www.topografix.com/GPX/1/1 http://www.topografix.com/GPX/1/1/gpx.xsd http://www.garmin.com/xmlschemas/GpxExtensions/v3 http://www.garmin.com/xmlschemas/GpxExtensionsv3.xsd">
    <metadata>
        <name>Untitled Document</name>
        <link href="http://www.garmin.com"></link>
        <time>2018-02-26T07:13:18.803Z</time>
    </metadata>
    <trk>
        <name>Saturday</name>
        <extensions>
            <gpxx:TrackExtension xmlns:gpxx="http://www.garmin.com/xmlschemas/GpxExtensions/v3">
                <gpxx:DisplayColor>Red</gpxx:DisplayColor>
            </gpxx:TrackExtension>
        </extensions>
        <trkseg>
            <trkpt lon="99.497044" lat="14.356325">
                <ele>143.400000</ele>
                <time>2013-09-28T06:02:23Z</time>
            </trkpt>
            <trkpt lon="99.497106" lat="14.356354">
                <ele>143.400000</ele>
                <time>2013-09-28T06:02:52Z</time>
            </trkpt>
            <trkpt lon="99.497111" lat="14.356331">
                <ele>139.100000</ele>
                <time>2013-09-28T06:03:08Z</time>
            </trkpt>
            <trkpt lon="99.497119" lat="14.356326">
                <ele>134.700000</ele>
                <time>2013-09-28T06:03:12Z</time>
            </trkpt>
            <trkpt lon="99.497062" lat="14.356317">
                <ele>120.800000</ele>
                <time>2013-09-28T06:03:27Z</time>
            </trkpt>
            <trkpt lon="99.497047" lat="14.356326">
                <ele>114.500000</ele>
                <time>2013-09-28T06:03:35Z</time>
            </trkpt>
            <trkpt lon="99.497132" lat="14.356304">
                <ele>95.300000</ele>
                <time>2013-09-28T06:04:28Z</time>
            </trkpt>
            <trkpt lon="99.497149" lat="14.354531">
                <ele>91.500000</ele>
                <time>2013-09-28T06:05:10Z</time>
            </trkpt>
            <trkpt lon="99.497700" lat="14.354082">
                <ele>91.900000</ele>
                <time>2013-09-28T06:05:23Z</time>
            </trkpt>
            <trkpt lon="99.497964" lat="14.353607">
                <ele>90.500000</ele>
                <time>2013-09-28T06:05:31Z</time>
            </trkpt>
            <trkpt lon="99.497909" lat="14.353183">
                <ele>90.000000</ele>
                <time>2013-09-28T06:05:37Z</time>
            </trkpt>
            <trkpt lon="99.497592" lat="14.352766">
                <ele>91.000000</ele>
                <time>2013-09-28T06:05:45Z</time>
            </trkpt>
            <trkpt lon="99.497493" lat="14.352530">
                <ele>91.000000</ele>
                <time>2013-09-28T06:05:49Z</time>
            </trkpt>
            <trkpt lon="99.497553" lat="14.352055">
                <ele>90.000000</ele>
                <time>2013-09-28T06:05:56Z</time>
            </trkpt>
            <trkpt lon="99.497847" lat="14.351700">
                <ele>90.000000</ele>
                <time>2013-09-28T06:06:03Z</time>
            </trkpt>
            <trkpt lon="99.498419" lat="14.351395">
                <ele>90.000000</ele>
                <time>2013-09-28T06:06:12Z</time>
            </trkpt>
            <trkpt lon="99.498777" lat="14.350981">
                <ele>90.500000</ele>
                <time>2013-09-28T06:06:20Z</time>
            </trkpt>
            <trkpt lon="99.498780" lat="14.350649">
                <ele>90.000000</ele>
                <time>2013-09-28T06:06:27Z</time>
            </trkpt>
            <trkpt lon="99.497660" lat="14.350584">
                <ele>90.500000</ele>
                <time>2013-09-28T06:06:44Z</time>
            </trkpt>
            <trkpt lon="99.496307" lat="14.351207">
                <ele>93.400000</ele>
                <time>2013-09-28T06:07:09Z</time>
            </trkpt>
            <trkpt lon="99.495771" lat="14.351341">
                <ele>93.400000</ele>
                <time>2013-09-28T06:07:18Z</time>
            </trkpt>
            <trkpt lon="99.495162" lat="14.351146">
                <ele>93.900000</ele>
                <time>2013-09-28T06:07:29Z</time>
            </trkpt>
            <trkpt lon="99.494252" lat="14.350929">
                <ele>90.000000</ele>
                <time>2013-09-28T06:07:42Z</time>
            </trkpt>
            <trkpt lon="99.493864" lat="14.351072">
                <ele>90.000000</ele>
                <time>2013-09-28T06:07:48Z</time>
            </trkpt>
            <trkpt lon="99.493161" lat="14.351656">
                <ele>90.500000</ele>
                <time>2013-09-28T06:08:02Z</time>
            </trkpt>
            <trkpt lon="99.492634" lat="14.352384">
                <ele>91.500000</ele>
                <time>2013-09-28T06:08:17Z</time>
            </trkpt>
            <trkpt lon="99.492423" lat="14.352595">
                <ele>91.500000</ele>
                <time>2013-09-28T06:08:22Z</time>
            </trkpt>
            <trkpt lon="99.491513" lat="14.352907">
                <ele>92.900000</ele>
                <time>2013-09-28T06:10:07Z</time>
            </trkpt>
            <trkpt lon="99.491342" lat="14.353333">
                <ele>94.800000</ele>
                <time>2013-09-28T06:10:21Z</time>
            </trkpt>
            <trkpt lon="99.490589" lat="14.357169">
                <ele>97.200000</ele>
                <time>2013-09-28T06:11:30Z</time>
            </trkpt>
            <trkpt lon="99.490351" lat="14.357815">
                <ele>97.200000</ele>
                <time>2013-09-28T06:11:42Z</time>
            </trkpt>
            <trkpt lon="99.489925" lat="14.358282">
                <ele>97.200000</ele>
                <time>2013-09-28T06:11:53Z</time>
            </trkpt>
            <trkpt lon="99.489862" lat="14.358775">
                <ele>95.800000</ele>
                <time>2013-09-28T06:12:02Z</time>
            </trkpt>
            <trkpt lon="99.488718" lat="14.360480">
                <ele>91.500000</ele>
                <time>2013-09-28T06:12:30Z</time>
            </trkpt>
            <trkpt lon="99.488013" lat="14.361904">
                <ele>91.000000</ele>
                <time>2013-09-28T06:12:57Z</time>
            </trkpt>
            <trkpt lon="99.487706" lat="14.362241">
                <ele>91.500000</ele>
                <time>2013-09-28T06:13:05Z</time>
            </trkpt>
            <trkpt lon="99.486864" lat="14.362241">
                <ele>89.500000</ele>
                <time>2013-09-28T06:13:18Z</time>
            </trkpt>
            <trkpt lon="99.485950" lat="14.362553">
                <ele>91.900000</ele>
                <time>2013-09-28T06:13:35Z</time>
            </trkpt>
            <trkpt lon="99.485762" lat="14.362678">
                <ele>91.900000</ele>
                <time>2013-09-28T06:13:39Z</time>
            </trkpt>
            <trkpt lon="99.485708" lat="14.363170">
                <ele>91.900000</ele>
                <time>2013-09-28T06:13:49Z</time>
            </trkpt>
            <trkpt lon="99.485931" lat="14.363774">
                <ele>91.000000</ele>
                <time>2013-09-28T06:14:00Z</time>
            </trkpt>
            <trkpt lon="99.486196" lat="14.365675">
                <ele>91.000000</ele>
                <time>2013-09-28T06:14:32Z</time>
            </trkpt>
            <trkpt lon="99.486258" lat="14.365946">
                <ele>90.000000</ele>
                <time>2013-09-28T06:14:36Z</time>
            </trkpt>
            <trkpt lon="99.486425" lat="14.366225">
                <ele>90.000000</ele>
                <time>2013-09-28T06:14:41Z</time>
            </trkpt>
            <trkpt lon="99.487057" lat="14.366655">
                <ele>91.000000</ele>
                <time>2013-09-28T06:14:53Z</time>
            </trkpt>
            <trkpt lon="99.487877" lat="14.367372">
                <ele>90.500000</ele>
                <time>2013-09-28T06:15:10Z</time>
            </trkpt>
            <trkpt lon="99.488371" lat="14.368779">
                <ele>90.000000</ele>
                <time>2013-09-28T06:15:33Z</time>
            </trkpt>
            <trkpt lon="99.488209" lat="14.370667">
                <ele>91.900000</ele>
                <time>2013-09-28T06:16:03Z</time>
            </trkpt>
            <trkpt lon="99.487756" lat="14.371809">
                <ele>90.000000</ele>
                <time>2013-09-28T06:16:20Z</time>
            </trkpt>
            <trkpt lon="99.487751" lat="14.373639">
                <ele>91.000000</ele>
                <time>2013-09-28T06:16:46Z</time>
            </trkpt>
            <trkpt lon="99.488680" lat="14.376782">
                <ele>92.900000</ele>
                <time>2013-09-28T06:17:35Z</time>
            </trkpt>
            <trkpt lon="99.487711" lat="14.376916">
                <ele>87.100000</ele>
                <time>2013-09-28T06:18:14Z</time>
            </trkpt>
            <trkpt lon="99.487447" lat="14.376804">
                <ele>91.900000</ele>
                <time>2013-09-28T06:18:21Z</time>
            </trkpt>
            <trkpt lon="99.487056" lat="14.375362">
                <ele>91.500000</ele>
                <time>2013-09-28T06:18:52Z</time>
            </trkpt>
            <trkpt lon="99.486627" lat="14.372511">
                <ele>91.900000</ele>
                <time>2013-09-28T06:19:37Z</time>
            </trkpt>
            <trkpt lon="99.486535" lat="14.372210">
                <ele>89.500000</ele>
                <time>2013-09-28T06:19:42Z</time>
            </trkpt>
            <trkpt lon="99.486350" lat="14.372023">
                <ele>91.000000</ele>
                <time>2013-09-28T06:19:46Z</time>
            </trkpt>
            <trkpt lon="99.485855" lat="14.372043">
                <ele>94.400000</ele>
                <time>2013-09-28T06:25:03Z</time>
            </trkpt>
            <trkpt lon="99.485292" lat="14.373466">
                <ele>94.400000</ele>
                <time>2013-09-28T06:25:34Z</time>
            </trkpt>
            <trkpt lon="99.485004" lat="14.373741">
                <ele>94.400000</ele>
                <time>2013-09-28T06:25:43Z</time>
            </trkpt>
            <trkpt lon="99.484715" lat="14.374257">
                <ele>93.900000</ele>
                <time>2013-09-28T06:25:53Z</time>
            </trkpt>
            <trkpt lon="99.484434" lat="14.375025">
                <ele>94.400000</ele>
                <time>2013-09-28T06:26:30Z</time>
            </trkpt>
            <trkpt lon="99.484346" lat="14.375096">
                <ele>91.500000</ele>
                <time>2013-09-28T06:27:05Z</time>
            </trkpt>
            <trkpt lon="99.484406" lat="14.375222">
                <ele>94.800000</ele>
                <time>2013-09-28T06:27:31Z</time>
            </trkpt>
            <trkpt lon="99.484275" lat="14.375546">
                <ele>94.800000</ele>
                <time>2013-09-28T06:27:51Z</time>
            </trkpt>
            <trkpt lon="99.483904" lat="14.375846">
                <ele>92.900000</ele>
                <time>2013-09-28T06:28:03Z</time>
            </trkpt>
            <trkpt lon="99.483499" lat="14.375840">
                <ele>91.900000</ele>
                <time>2013-09-28T06:28:12Z</time>
            </trkpt>
            <trkpt lon="99.483116" lat="14.376139">
                <ele>92.400000</ele>
                <time>2013-09-28T06:28:22Z</time>
            </trkpt>
            <trkpt lon="99.483001" lat="14.376856">
                <ele>94.400000</ele>
                <time>2013-09-28T06:28:38Z</time>
            </trkpt>
            <trkpt lon="99.483240" lat="14.377255">
                <ele>96.300000</ele>
                <time>2013-09-28T06:28:48Z</time>
            </trkpt>
            <trkpt lon="99.483806" lat="14.377562">
                <ele>96.300000</ele>
                <time>2013-09-28T06:29:04Z</time>
            </trkpt>
            <trkpt lon="99.484270" lat="14.377793">
                <ele>95.300000</ele>
                <time>2013-09-28T06:29:13Z</time>
            </trkpt>
            <trkpt lon="99.484659" lat="14.378302">
                <ele>92.900000</ele>
                <time>2013-09-28T06:29:22Z</time>
            </trkpt>
            <trkpt lon="99.485100" lat="14.378661">
                <ele>92.400000</ele>
                <time>2013-09-28T06:29:31Z</time>
            </trkpt>
            <trkpt lon="99.485692" lat="14.379800">
                <ele>96.300000</ele>
                <time>2013-09-28T06:30:06Z</time>
            </trkpt>
            <trkpt lon="99.485837" lat="14.379913">
                <ele>96.800000</ele>
                <time>2013-09-28T06:30:14Z</time>
            </trkpt>
            <trkpt lon="99.485938" lat="14.380297">
                <ele>94.400000</ele>
                <time>2013-09-28T06:30:26Z</time>
            </trkpt>
            <trkpt lon="99.485784" lat="14.380734">
                <ele>92.400000</ele>
                <time>2013-09-28T06:30:41Z</time>
            </trkpt>
            <trkpt lon="99.486003" lat="14.380743">
                <ele>93.900000</ele>
                <time>2013-09-28T06:38:13Z</time>
            </trkpt>
            <trkpt lon="99.486175" lat="14.380804">
                <ele>93.900000</ele>
                <time>2013-09-28T06:38:22Z</time>
            </trkpt>
            <trkpt lon="99.486700" lat="14.381071">
                <ele>94.400000</ele>
                <time>2013-09-28T06:38:38Z</time>
            </trkpt>
            <trkpt lon="99.487052" lat="14.381007">
                <ele>95.300000</ele>
                <time>2013-09-28T06:38:51Z</time>
            </trkpt>
            <trkpt lon="99.487721" lat="14.382058">
                <ele>94.400000</ele>
                <time>2013-09-28T06:39:16Z</time>
            </trkpt>
            <trkpt lon="99.487992" lat="14.382261">
                <ele>94.800000</ele>
                <time>2013-09-28T06:39:22Z</time>
            </trkpt>
            <trkpt lon="99.493043" lat="14.382815">
                <ele>95.300000</ele>
                <time>2013-09-28T06:40:38Z</time>
            </trkpt>
            <trkpt lon="99.493522" lat="14.383107">
                <ele>94.800000</ele>
                <time>2013-09-28T06:40:46Z</time>
            </trkpt>
            <trkpt lon="99.493682" lat="14.384069">
                <ele>95.800000</ele>
                <time>2013-09-28T06:41:01Z</time>
            </trkpt>
            <trkpt lon="99.494180" lat="14.384764">
                <ele>95.800000</ele>
                <time>2013-09-28T06:41:14Z</time>
            </trkpt>
            <trkpt lon="99.494452" lat="14.385884">
                <ele>96.300000</ele>
                <time>2013-09-28T06:41:32Z</time>
            </trkpt>
            <trkpt lon="99.495142" lat="14.387358">
                <ele>97.200000</ele>
                <time>2013-09-28T06:42:00Z</time>
            </trkpt>
            <trkpt lon="99.495771" lat="14.388664">
                <ele>97.700000</ele>
                <time>2013-09-28T06:42:25Z</time>
            </trkpt>
            <trkpt lon="99.496158" lat="14.388852">
                <ele>97.700000</ele>
                <time>2013-09-28T06:42:34Z</time>
            </trkpt>
            <trkpt lon="99.498377" lat="14.388140">
                <ele>96.800000</ele>
                <time>2013-09-28T06:43:08Z</time>
            </trkpt>
            <trkpt lon="99.498642" lat="14.388281">
                <ele>97.200000</ele>
                <time>2013-09-28T06:43:14Z</time>
            </trkpt>
            <trkpt lon="99.499296" lat="14.391936">
                <ele>98.200000</ele>
                <time>2013-09-28T06:44:14Z</time>
            </trkpt>
            <trkpt lon="99.499539" lat="14.392181">
                <ele>100.100000</ele>
                <time>2013-09-28T06:44:21Z</time>
            </trkpt>
            <trkpt lon="99.503345" lat="14.393245">
                <ele>99.200000</ele>
                <time>2013-09-28T06:45:13Z</time>
            </trkpt>
            <trkpt lon="99.504541" lat="14.393393">
                <ele>99.600000</ele>
                <time>2013-09-28T06:45:27Z</time>
            </trkpt>
            <trkpt lon="99.505714" lat="14.393588">
                <ele>99.200000</ele>
                <time>2013-09-28T06:45:41Z</time>
            </trkpt>
            <trkpt lon="99.508192" lat="14.393655">
                <ele>99.200000</ele>
                <time>2013-09-28T06:46:10Z</time>
            </trkpt>
            <trkpt lon="99.512694" lat="14.393135">
                <ele>101.100000</ele>
                <time>2013-09-28T06:47:04Z</time>
            </trkpt>
            <trkpt lon="99.513545" lat="14.393193">
                <ele>102.500000</ele>
                <time>2013-09-28T06:47:20Z</time>
            </trkpt>
            <trkpt lon="99.513563" lat="14.393334">
                <ele>102.500000</ele>
                <time>2013-09-28T06:47:37Z</time>
            </trkpt>
            <trkpt lon="99.513839" lat="14.392940">
                <ele>103.500000</ele>
                <time>2013-09-28T06:53:48Z</time>
            </trkpt>
            <trkpt lon="99.514091" lat="14.391836">
                <ele>103.500000</ele>
                <time>2013-09-28T06:54:13Z</time>
            </trkpt>
            <trkpt lon="99.517320" lat="14.391559">
                <ele>108.300000</ele>
                <time>2013-09-28T06:55:13Z</time>
            </trkpt>
            <trkpt lon="99.517530" lat="14.391804">
                <ele>108.800000</ele>
                <time>2013-09-28T06:55:20Z</time>
            </trkpt>
            <trkpt lon="99.517626" lat="14.392767">
                <ele>109.300000</ele>
                <time>2013-09-28T06:55:38Z</time>
            </trkpt>
            <trkpt lon="99.517682" lat="14.393137">
                <ele>108.300000</ele>
                <time>2013-09-28T06:55:44Z</time>
            </trkpt>
            <trkpt lon="99.517890" lat="14.393316">
                <ele>107.800000</ele>
                <time>2013-09-28T06:55:49Z</time>
            </trkpt>
            <trkpt lon="99.519330" lat="14.393315">
                <ele>109.700000</ele>
                <time>2013-09-28T06:56:11Z</time>
            </trkpt>
            <trkpt lon="99.519647" lat="14.393508">
                <ele>109.700000</ele>
                <time>2013-09-28T06:56:18Z</time>
            </trkpt>
            <trkpt lon="99.519739" lat="14.393714">
                <ele>110.200000</ele>
                <time>2013-09-28T06:56:22Z</time>
            </trkpt>
            <trkpt lon="99.519939" lat="14.393914">
                <ele>110.200000</ele>
                <time>2013-09-28T06:56:28Z</time>
            </trkpt>
            <trkpt lon="99.520849" lat="14.393916">
                <ele>112.100000</ele>
                <time>2013-09-28T06:56:44Z</time>
            </trkpt>
            <trkpt lon="99.521713" lat="14.394012">
                <ele>113.100000</ele>
                <time>2013-09-28T06:57:01Z</time>
            </trkpt>
            <trkpt lon="99.521791" lat="14.394474">
                <ele>111.700000</ele>
                <time>2013-09-28T06:57:09Z</time>
            </trkpt>
            <trkpt lon="99.522541" lat="14.395543">
                <ele>112.600000</ele>
                <time>2013-09-28T06:57:38Z</time>
            </trkpt>
            <trkpt lon="99.522776" lat="14.395804">
                <ele>112.100000</ele>
                <time>2013-09-28T06:57:46Z</time>
            </trkpt>
            <trkpt lon="99.523282" lat="14.395764">
                <ele>114.500000</ele>
                <time>2013-09-28T07:11:34Z</time>
            </trkpt>
            <trkpt lon="99.523284" lat="14.395760">
                <ele>113.600000</ele>
                <time>2013-09-28T07:12:35Z</time>
            </trkpt>
            <trkpt lon="99.523438" lat="14.397058">
                <ele>115.000000</ele>
                <time>2013-09-28T07:14:44Z</time>
            </trkpt>
            <trkpt lon="99.523678" lat="14.397673">
                <ele>115.000000</ele>
                <time>2013-09-28T07:15:09Z</time>
            </trkpt>
            <trkpt lon="99.523927" lat="14.398116">
                <ele>115.500000</ele>
                <time>2013-09-28T07:15:22Z</time>
            </trkpt>
            <trkpt lon="99.524537" lat="14.398703">
                <ele>117.400000</ele>
                <time>2013-09-28T07:15:46Z</time>
            </trkpt>
            <trkpt lon="99.524703" lat="14.399123">
                <ele>117.400000</ele>
                <time>2013-09-28T07:15:59Z</time>
            </trkpt>
            <trkpt lon="99.524662" lat="14.399648">
                <ele>119.300000</ele>
                <time>2013-09-28T07:16:17Z</time>
            </trkpt>
            <trkpt lon="99.525595" lat="14.399801">
                <ele>122.200000</ele>
                <time>2013-09-28T07:16:53Z</time>
            </trkpt>
            <trkpt lon="99.525959" lat="14.401322">
                <ele>126.600000</ele>
                <time>2013-09-28T07:17:49Z</time>
            </trkpt>
            <trkpt lon="99.526348" lat="14.402450">
                <ele>128.500000</ele>
                <time>2013-09-28T07:18:30Z</time>
            </trkpt>
            <trkpt lon="99.526415" lat="14.402572">
                <ele>128.500000</ele>
                <time>2013-09-28T07:18:35Z</time>
            </trkpt>
            <trkpt lon="99.528522" lat="14.401636">
                <ele>133.800000</ele>
                <time>2013-09-28T07:20:02Z</time>
            </trkpt>
            <trkpt lon="99.528901" lat="14.402208">
                <ele>136.200000</ele>
                <time>2013-09-28T07:20:22Z</time>
            </trkpt>
            <trkpt lon="99.529234" lat="14.403386">
                <ele>138.600000</ele>
                <time>2013-09-28T07:20:52Z</time>
            </trkpt>
            <trkpt lon="99.529117" lat="14.408430">
                <ele>138.100000</ele>
                <time>2013-09-28T07:22:22Z</time>
            </trkpt>
            <trkpt lon="99.529006" lat="14.408637">
                <ele>138.100000</ele>
                <time>2013-09-28T07:22:26Z</time>
            </trkpt>
            <trkpt lon="99.528687" lat="14.408732">
                <ele>136.600000</ele>
                <time>2013-09-28T07:22:33Z</time>
            </trkpt>
            <trkpt lon="99.528616" lat="14.408909">
                <ele>136.600000</ele>
                <time>2013-09-28T07:22:41Z</time>
            </trkpt>
            <trkpt lon="99.528800" lat="14.411105">
                <ele>131.800000</ele>
                <time>2013-09-28T07:23:22Z</time>
            </trkpt>
            <trkpt lon="99.528962" lat="14.411222">
                <ele>132.800000</ele>
                <time>2013-09-28T07:23:42Z</time>
            </trkpt>
            <trkpt lon="99.528811" lat="14.411215">
                <ele>132.300000</ele>
                <time>2013-09-28T07:23:59Z</time>
            </trkpt>
            <trkpt lon="99.532455" lat="14.412113">
                <ele>132.300000</ele>
                <time>2013-09-28T07:25:05Z</time>
            </trkpt>
            <trkpt lon="99.533275" lat="14.412557">
                <ele>131.800000</ele>
                <time>2013-09-28T07:25:17Z</time>
            </trkpt>
            <trkpt lon="99.533438" lat="14.412829">
                <ele>131.800000</ele>
                <time>2013-09-28T07:25:23Z</time>
            </trkpt>
            <trkpt lon="99.533020" lat="14.413070">
                <ele>131.400000</ele>
                <time>2013-09-28T07:26:01Z</time>
            </trkpt>
            <trkpt lon="99.532557" lat="14.413770">
                <ele>133.300000</ele>
                <time>2013-09-28T07:26:27Z</time>
            </trkpt>
            <trkpt lon="99.532210" lat="14.414656">
                <ele>136.600000</ele>
                <time>2013-09-28T07:26:58Z</time>
            </trkpt>
            <trkpt lon="99.531893" lat="14.415080">
                <ele>136.600000</ele>
                <time>2013-09-28T07:27:15Z</time>
            </trkpt>
            <trkpt lon="99.531689" lat="14.415083">
                <ele>137.600000</ele>
                <time>2013-09-28T07:27:36Z</time>
            </trkpt>
            <trkpt lon="99.530900" lat="14.415342">
                <ele>136.600000</ele>
                <time>2013-09-28T07:28:04Z</time>
            </trkpt>
            <trkpt lon="99.530766" lat="14.418082">
                <ele>144.800000</ele>
                <time>2013-09-28T07:29:21Z</time>
            </trkpt>
            <trkpt lon="99.530745" lat="14.418767">
                <ele>145.300000</ele>
                <time>2013-09-28T07:29:36Z</time>
            </trkpt>
            <trkpt lon="99.530715" lat="14.421771">
                <ele>144.300000</ele>
                <time>2013-09-28T07:30:47Z</time>
            </trkpt>
            <trkpt lon="99.530298" lat="14.422643">
                <ele>142.400000</ele>
                <time>2013-09-28T07:31:06Z</time>
            </trkpt>
            <trkpt lon="99.529992" lat="14.422732">
                <ele>140.500000</ele>
                <time>2013-09-28T07:31:12Z</time>
            </trkpt>
            <trkpt lon="99.529249" lat="14.422526">
                <ele>137.600000</ele>
                <time>2013-09-28T07:31:23Z</time>
            </trkpt>
            <trkpt lon="99.529092" lat="14.422681">
                <ele>136.200000</ele>
                <time>2013-09-28T07:31:29Z</time>
            </trkpt>
            <trkpt lon="99.529207" lat="14.423668">
                <ele>135.700000</ele>
                <time>2013-09-28T07:31:44Z</time>
            </trkpt>
            <trkpt lon="99.529097" lat="14.424414">
                <ele>133.300000</ele>
                <time>2013-09-28T07:31:54Z</time>
            </trkpt>
            <trkpt lon="99.529373" lat="14.425033">
                <ele>131.800000</ele>
                <time>2013-09-28T07:32:03Z</time>
            </trkpt>
            <trkpt lon="99.530242" lat="14.425575">
                <ele>132.300000</ele>
                <time>2013-09-28T07:32:17Z</time>
            </trkpt>
            <trkpt lon="99.531346" lat="14.425988">
                <ele>131.800000</ele>
                <time>2013-09-28T07:32:36Z</time>
            </trkpt>
            <trkpt lon="99.533850" lat="14.426104">
                <ele>135.200000</ele>
                <time>2013-09-28T07:33:15Z</time>
            </trkpt>
            <trkpt lon="99.535790" lat="14.426576">
                <ele>139.100000</ele>
                <time>2013-09-28T07:33:50Z</time>
            </trkpt>
            <trkpt lon="99.536488" lat="14.426654">
                <ele>137.600000</ele>
                <time>2013-09-28T07:34:01Z</time>
            </trkpt>
            <trkpt lon="99.537708" lat="14.426415">
                <ele>138.600000</ele>
                <time>2013-09-28T07:34:21Z</time>
            </trkpt>
            <trkpt lon="99.539315" lat="14.426634">
                <ele>142.400000</ele>
                <time>2013-09-28T07:34:53Z</time>
            </trkpt>
            <trkpt lon="99.539754" lat="14.426818">
                <ele>142.900000</ele>
                <time>2013-09-28T07:35:02Z</time>
            </trkpt>
            <trkpt lon="99.540297" lat="14.427167">
                <ele>142.400000</ele>
                <time>2013-09-28T07:35:14Z</time>
            </trkpt>
            <trkpt lon="99.540745" lat="14.427234">
                <ele>143.400000</ele>
                <time>2013-09-28T07:35:22Z</time>
            </trkpt>
            <trkpt lon="99.540893" lat="14.427236">
                <ele>143.400000</ele>
                <time>2013-09-28T07:35:25Z</time>
            </trkpt>
            <trkpt lon="99.541622" lat="14.427166">
                <ele>146.300000</ele>
                <time>2013-09-28T07:35:43Z</time>
            </trkpt>
            <trkpt lon="99.542218" lat="14.426732">
                <ele>149.100000</ele>
                <time>2013-09-28T07:36:01Z</time>
            </trkpt>
            <trkpt lon="99.544213" lat="14.425734">
                <ele>154.000000</ele>
                <time>2013-09-28T07:36:54Z</time>
            </trkpt>
            <trkpt lon="99.547187" lat="14.424811">
                <ele>166.500000</ele>
                <time>2013-09-28T07:39:11Z</time>
            </trkpt>
            <trkpt lon="99.548515" lat="14.424751">
                <ele>169.800000</ele>
                <time>2013-09-28T07:39:41Z</time>
            </trkpt>
            <trkpt lon="99.549033" lat="14.424800">
                <ele>170.300000</ele>
                <time>2013-09-28T07:39:53Z</time>
            </trkpt>
            <trkpt lon="99.550681" lat="14.425387">
                <ele>173.700000</ele>
                <time>2013-09-28T07:40:30Z</time>
            </trkpt>
            <trkpt lon="99.551165" lat="14.425841">
                <ele>175.100000</ele>
                <time>2013-09-28T07:40:45Z</time>
            </trkpt>
            <trkpt lon="99.552132" lat="14.426422">
                <ele>182.300000</ele>
                <time>2013-09-28T07:41:25Z</time>
            </trkpt>
            <trkpt lon="99.552905" lat="14.426896">
                <ele>184.200000</ele>
                <time>2013-09-28T07:41:53Z</time>
            </trkpt>
            <trkpt lon="99.553506" lat="14.427616">
                <ele>187.600000</ele>
                <time>2013-09-28T07:42:16Z</time>
            </trkpt>
            <trkpt lon="99.554150" lat="14.427873">
                <ele>188.100000</ele>
                <time>2013-09-28T07:42:32Z</time>
            </trkpt>
            <trkpt lon="99.556469" lat="14.429509">
                <ele>214.500000</ele>
                <time>2013-09-28T07:45:00Z</time>
            </trkpt>
            <trkpt lon="99.557600" lat="14.429782">
                <ele>228.000000</ele>
                <time>2013-09-28T07:46:20Z</time>
            </trkpt>
            <trkpt lon="99.557791" lat="14.429817">
                <ele>228.900000</ele>
                <time>2013-09-28T07:47:38Z</time>
            </trkpt>
            <trkpt lon="99.558347" lat="14.429756">
                <ele>226.100000</ele>
                <time>2013-09-28T07:48:38Z</time>
            </trkpt>
            <trkpt lon="99.559486" lat="14.430083">
                <ele>221.700000</ele>
                <time>2013-09-28T07:48:54Z</time>
            </trkpt>
            <trkpt lon="99.559829" lat="14.430060">
                <ele>220.300000</ele>
                <time>2013-09-28T07:48:59Z</time>
            </trkpt>
            <trkpt lon="99.561856" lat="14.429101">
                <ele>208.700000</ele>
                <time>2013-09-28T07:49:26Z</time>
            </trkpt>
            <trkpt lon="99.562502" lat="14.428236">
                <ele>208.700000</ele>
                <time>2013-09-28T07:49:41Z</time>
            </trkpt>
            <trkpt lon="99.562873" lat="14.428004">
                <ele>208.700000</ele>
                <time>2013-09-28T07:49:47Z</time>
            </trkpt>
            <trkpt lon="99.563097" lat="14.427945">
                <ele>207.800000</ele>
                <time>2013-09-28T07:49:50Z</time>
            </trkpt>
            <trkpt lon="99.565109" lat="14.428009">
                <ele>197.700000</ele>
                <time>2013-09-28T07:50:11Z</time>
            </trkpt>
            <trkpt lon="99.565434" lat="14.428132">
                <ele>195.800000</ele>
                <time>2013-09-28T07:50:18Z</time>
            </trkpt>
            <trkpt lon="99.566181" lat="14.429376">
                <ele>190.500000</ele>
                <time>2013-09-28T07:50:45Z</time>
            </trkpt>
            <trkpt lon="99.566246" lat="14.430396">
                <ele>198.700000</ele>
                <time>2013-09-28T07:51:22Z</time>
            </trkpt>
            <trkpt lon="99.565794" lat="14.431716">
                <ele>196.700000</ele>
                <time>2013-09-28T07:51:53Z</time>
            </trkpt>
            <trkpt lon="99.566125" lat="14.432591">
                <ele>195.300000</ele>
                <time>2013-09-28T07:52:07Z</time>
            </trkpt>
            <trkpt lon="99.566344" lat="14.434274">
                <ele>199.600000</ele>
                <time>2013-09-28T07:52:47Z</time>
            </trkpt>
            <trkpt lon="99.566611" lat="14.434896">
                <ele>202.000000</ele>
                <time>2013-09-28T07:53:09Z</time>
            </trkpt>
            <trkpt lon="99.567143" lat="14.435618">
                <ele>198.700000</ele>
                <time>2013-09-28T07:53:28Z</time>
            </trkpt>
            <trkpt lon="99.567735" lat="14.435993">
                <ele>194.800000</ele>
                <time>2013-09-28T07:53:37Z</time>
            </trkpt>
            <trkpt lon="99.568362" lat="14.436598">
                <ele>193.800000</ele>
                <time>2013-09-28T07:53:49Z</time>
            </trkpt>
            <trkpt lon="99.568955" lat="14.437406">
                <ele>194.800000</ele>
                <time>2013-09-28T07:54:05Z</time>
            </trkpt>
            <trkpt lon="99.569567" lat="14.437917">
                <ele>195.300000</ele>
                <time>2013-09-28T07:54:18Z</time>
            </trkpt>
            <trkpt lon="99.570179" lat="14.438892">
                <ele>197.700000</ele>
                <time>2013-09-28T07:54:40Z</time>
            </trkpt>
            <trkpt lon="99.570456" lat="14.439657">
                <ele>198.200000</ele>
                <time>2013-09-28T07:54:55Z</time>
            </trkpt>
            <trkpt lon="99.570808" lat="14.440069">
                <ele>198.700000</ele>
                <time>2013-09-28T07:55:05Z</time>
            </trkpt>
            <trkpt lon="99.571101" lat="14.440324">
                <ele>198.700000</ele>
                <time>2013-09-28T07:55:12Z</time>
            </trkpt>
            <trkpt lon="99.571621" lat="14.440285">
                <ele>199.600000</ele>
                <time>2013-09-28T07:55:22Z</time>
            </trkpt>
            <trkpt lon="99.572620" lat="14.438281">
                <ele>191.400000</ele>
                <time>2013-09-28T07:55:53Z</time>
            </trkpt>
            <trkpt lon="99.573791" lat="14.437872">
                <ele>188.600000</ele>
                <time>2013-09-28T07:56:09Z</time>
            </trkpt>
            <trkpt lon="99.574523" lat="14.437398">
                <ele>187.100000</ele>
                <time>2013-09-28T07:56:20Z</time>
            </trkpt>
            <trkpt lon="99.575395" lat="14.436732">
                <ele>184.700000</ele>
                <time>2013-09-28T07:56:35Z</time>
            </trkpt>
            <trkpt lon="99.576240" lat="14.436185">
                <ele>181.800000</ele>
                <time>2013-09-28T07:56:48Z</time>
            </trkpt>
            <trkpt lon="99.577024" lat="14.436024">
                <ele>184.200000</ele>
                <time>2013-09-28T07:57:00Z</time>
            </trkpt>
            <trkpt lon="99.577308" lat="14.436158">
                <ele>184.700000</ele>
                <time>2013-09-28T07:57:06Z</time>
            </trkpt>
            <trkpt lon="99.577405" lat="14.436130">
                <ele>184.200000</ele>
                <time>2013-09-28T07:57:12Z</time>
            </trkpt>
            <trkpt lon="99.576849" lat="14.435034">
                <ele>179.900000</ele>
                <time>2013-09-28T07:58:01Z</time>
            </trkpt>
            <trkpt lon="99.576672" lat="14.434185">
                <ele>179.400000</ele>
                <time>2013-09-28T07:58:18Z</time>
            </trkpt>
            <trkpt lon="99.577467" lat="14.431115">
                <ele>171.300000</ele>
                <time>2013-09-28T07:59:21Z</time>
            </trkpt>
            <trkpt lon="99.577644" lat="14.430847">
                <ele>170.300000</ele>
                <time>2013-09-28T07:59:28Z</time>
            </trkpt>
            <trkpt lon="99.578882" lat="14.429978">
                <ele>174.100000</ele>
                <time>2013-09-28T08:01:01Z</time>
            </trkpt>
            <trkpt lon="99.579402" lat="14.428994">
                <ele>168.400000</ele>
                <time>2013-09-28T08:01:26Z</time>
            </trkpt>
            <trkpt lon="99.579456" lat="14.428258">
                <ele>165.500000</ele>
                <time>2013-09-28T08:02:34Z</time>
            </trkpt>
            <trkpt lon="99.578871" lat="14.427352">
                <ele>170.800000</ele>
                <time>2013-09-28T08:03:20Z</time>
            </trkpt>
            <trkpt lon="99.579009" lat="14.427068">
                <ele>170.300000</ele>
                <time>2013-09-28T08:03:30Z</time>
            </trkpt>
            <trkpt lon="99.580270" lat="14.425711">
                <ele>167.400000</ele>
                <time>2013-09-28T08:04:07Z</time>
            </trkpt>
            <trkpt lon="99.581391" lat="14.424573">
                <ele>164.000000</ele>
                <time>2013-09-28T08:06:23Z</time>
            </trkpt>
            <trkpt lon="99.580485" lat="14.423266">
                <ele>169.800000</ele>
                <time>2013-09-28T08:07:06Z</time>
            </trkpt>
            <trkpt lon="99.580425" lat="14.422891">
                <ele>168.900000</ele>
                <time>2013-09-28T08:07:18Z</time>
            </trkpt>
            <trkpt lon="99.580546" lat="14.422646">
                <ele>169.300000</ele>
                <time>2013-09-28T08:07:27Z</time>
            </trkpt>
            <trkpt lon="99.579758" lat="14.421720">
                <ele>172.200000</ele>
                <time>2013-09-28T08:08:04Z</time>
            </trkpt>
            <trkpt lon="99.579861" lat="14.421536">
                <ele>171.700000</ele>
                <time>2013-09-28T08:08:19Z</time>
            </trkpt>
            <trkpt lon="99.579714" lat="14.421670">
                <ele>172.200000</ele>
                <time>2013-09-28T08:08:36Z</time>
            </trkpt>
            <trkpt lon="99.578794" lat="14.421771">
                <ele>178.900000</ele>
                <time>2013-09-28T08:10:55Z</time>
            </trkpt>
            <trkpt lon="99.578702" lat="14.421670">
                <ele>177.500000</ele>
                <time>2013-09-28T08:11:03Z</time>
            </trkpt>
            <trkpt lon="99.577742" lat="14.419057">
                <ele>180.900000</ele>
                <time>2013-09-28T08:13:02Z</time>
            </trkpt>
            <trkpt lon="99.577614" lat="14.418623">
                <ele>180.400000</ele>
                <time>2013-09-28T08:13:12Z</time>
            </trkpt>
            <trkpt lon="99.577500" lat="14.417737">
                <ele>178.000000</ele>
                <time>2013-09-28T08:13:32Z</time>
            </trkpt>
            <trkpt lon="99.577491" lat="14.416718">
                <ele>171.300000</ele>
                <time>2013-09-28T08:13:49Z</time>
            </trkpt>
            <trkpt lon="99.577323" lat="14.416002">
                <ele>167.900000</ele>
                <time>2013-09-28T08:13:57Z</time>
            </trkpt>
            <trkpt lon="99.576895" lat="14.416064">
                <ele>167.900000</ele>
                <time>2013-09-28T08:14:50Z</time>
            </trkpt>
            <trkpt lon="99.576356" lat="14.414936">
                <ele>161.200000</ele>
                <time>2013-09-28T08:15:07Z</time>
            </trkpt>
            <trkpt lon="99.576173" lat="14.413795">
                <ele>158.800000</ele>
                <time>2013-09-28T08:15:32Z</time>
            </trkpt>
            <trkpt lon="99.576359" lat="14.412756">
                <ele>160.700000</ele>
                <time>2013-09-28T08:15:52Z</time>
            </trkpt>
            <trkpt lon="99.576337" lat="14.412550">
                <ele>160.700000</ele>
                <time>2013-09-28T08:15:56Z</time>
            </trkpt>
            <trkpt lon="99.576837" lat="14.411904">
                <ele>158.800000</ele>
                <time>2013-09-28T08:16:09Z</time>
            </trkpt>
            <trkpt lon="99.577011" lat="14.411411">
                <ele>157.800000</ele>
                <time>2013-09-28T08:16:16Z</time>
            </trkpt>
            <trkpt lon="99.576776" lat="14.410288">
                <ele>156.400000</ele>
                <time>2013-09-28T08:16:32Z</time>
            </trkpt>
            <trkpt lon="99.576545" lat="14.410009">
                <ele>156.400000</ele>
                <time>2013-09-28T08:16:39Z</time>
            </trkpt>
            <trkpt lon="99.576323" lat="14.410001">
                <ele>156.800000</ele>
                <time>2013-09-28T08:16:43Z</time>
            </trkpt>
            <trkpt lon="99.575420" lat="14.410419">
                <ele>160.700000</ele>
                <time>2013-09-28T08:17:07Z</time>
            </trkpt>
            <trkpt lon="99.574903" lat="14.410809">
                <ele>161.200000</ele>
                <time>2013-09-28T08:17:22Z</time>
            </trkpt>
            <trkpt lon="99.570348" lat="14.412622">
                <ele>167.900000</ele>
                <time>2013-09-28T08:19:00Z</time>
            </trkpt>
            <trkpt lon="99.569625" lat="14.412585">
                <ele>168.400000</ele>
                <time>2013-09-28T08:19:21Z</time>
            </trkpt>
            <trkpt lon="99.568875" lat="14.411577">
                <ele>167.900000</ele>
                <time>2013-09-28T08:19:41Z</time>
            </trkpt>
            <trkpt lon="99.568536" lat="14.411412">
                <ele>168.400000</ele>
                <time>2013-09-28T08:19:49Z</time>
            </trkpt>
            <trkpt lon="99.567127" lat="14.411955">
                <ele>172.200000</ele>
                <time>2013-09-28T08:20:20Z</time>
            </trkpt>
            <trkpt lon="99.566165" lat="14.412368">
                <ele>168.900000</ele>
                <time>2013-09-28T08:20:38Z</time>
            </trkpt>
            <trkpt lon="99.565212" lat="14.412292">
                <ele>174.100000</ele>
                <time>2013-09-28T08:21:50Z</time>
            </trkpt>
            <trkpt lon="99.564863" lat="14.412090">
                <ele>176.500000</ele>
                <time>2013-09-28T08:22:15Z</time>
            </trkpt>
            <trkpt lon="99.564394" lat="14.412149">
                <ele>178.500000</ele>
                <time>2013-09-28T08:22:47Z</time>
            </trkpt>
            <trkpt lon="99.563793" lat="14.411748">
                <ele>179.400000</ele>
                <time>2013-09-28T08:23:57Z</time>
            </trkpt>
            <trkpt lon="99.563536" lat="14.410805">
                <ele>172.700000</ele>
                <time>2013-09-28T08:26:08Z</time>
            </trkpt>
            <trkpt lon="99.563426" lat="14.409205">
                <ele>170.300000</ele>
                <time>2013-09-28T08:27:07Z</time>
            </trkpt>
            <trkpt lon="99.563384" lat="14.409033">
                <ele>167.900000</ele>
                <time>2013-09-28T08:27:13Z</time>
            </trkpt>
            <trkpt lon="99.563430" lat="14.408665">
                <ele>166.000000</ele>
                <time>2013-09-28T08:27:52Z</time>
            </trkpt>
            <trkpt lon="99.563767" lat="14.408432">
                <ele>164.500000</ele>
                <time>2013-09-28T08:28:05Z</time>
            </trkpt>
            <trkpt lon="99.563967" lat="14.407344">
                <ele>164.000000</ele>
                <time>2013-09-28T08:28:32Z</time>
            </trkpt>
            <trkpt lon="99.564226" lat="14.405374">
                <ele>156.400000</ele>
                <time>2013-09-28T08:29:07Z</time>
            </trkpt>
            <trkpt lon="99.564089" lat="14.404141">
                <ele>151.100000</ele>
                <time>2013-09-28T08:29:26Z</time>
            </trkpt>
            <trkpt lon="99.563772" lat="14.403548">
                <ele>149.600000</ele>
                <time>2013-09-28T08:29:38Z</time>
            </trkpt>
            <trkpt lon="99.563614" lat="14.401906">
                <ele>146.300000</ele>
                <time>2013-09-28T08:30:14Z</time>
            </trkpt>
            <trkpt lon="99.562043" lat="14.401928">
                <ele>151.100000</ele>
                <time>2013-09-28T08:31:50Z</time>
            </trkpt>
            <trkpt lon="99.561945" lat="14.401776">
                <ele>151.500000</ele>
                <time>2013-09-28T08:31:56Z</time>
            </trkpt>
            <trkpt lon="99.561780" lat="14.399373">
                <ele>142.400000</ele>
                <time>2013-09-28T08:32:31Z</time>
            </trkpt>
            <trkpt lon="99.561156" lat="14.395333">
                <ele>137.100000</ele>
                <time>2013-09-28T08:33:30Z</time>
            </trkpt>
            <trkpt lon="99.561012" lat="14.394151">
                <ele>135.200000</ele>
                <time>2013-09-28T08:33:45Z</time>
            </trkpt>
            <trkpt lon="99.560975" lat="14.393873">
                <ele>134.200000</ele>
                <time>2013-09-28T08:33:49Z</time>
            </trkpt>
            <trkpt lon="99.560730" lat="14.393680">
                <ele>134.700000</ele>
                <time>2013-09-28T08:33:55Z</time>
            </trkpt>
            <trkpt lon="99.559411" lat="14.394166">
                <ele>138.600000</ele>
                <time>2013-09-28T08:34:20Z</time>
            </trkpt>
            <trkpt lon="99.558714" lat="14.394402">
                <ele>139.100000</ele>
                <time>2013-09-28T08:34:34Z</time>
            </trkpt>
            <trkpt lon="99.558475" lat="14.394208">
                <ele>139.100000</ele>
                <time>2013-09-28T08:34:41Z</time>
            </trkpt>
            <trkpt lon="99.558282" lat="14.390213">
                <ele>132.800000</ele>
                <time>2013-09-28T08:35:35Z</time>
            </trkpt>
            <trkpt lon="99.558351" lat="14.389207">
                <ele>130.400000</ele>
                <time>2013-09-28T08:35:48Z</time>
            </trkpt>
            <trkpt lon="99.558097" lat="14.387313">
                <ele>128.000000</ele>
                <time>2013-09-28T08:36:11Z</time>
            </trkpt>
            <trkpt lon="99.557292" lat="14.386250">
                <ele>128.000000</ele>
                <time>2013-09-28T08:36:29Z</time>
            </trkpt>
            <trkpt lon="99.556992" lat="14.384963">
                <ele>129.400000</ele>
                <time>2013-09-28T08:36:52Z</time>
            </trkpt>
            <trkpt lon="99.557026" lat="14.384161">
                <ele>131.400000</ele>
                <time>2013-09-28T08:37:07Z</time>
            </trkpt>
            <trkpt lon="99.557082" lat="14.382925">
                <ele>130.900000</ele>
                <time>2013-09-28T08:37:30Z</time>
            </trkpt>
            <trkpt lon="99.557065" lat="14.381893">
                <ele>129.900000</ele>
                <time>2013-09-28T08:37:47Z</time>
            </trkpt>
            <trkpt lon="99.557475" lat="14.381199">
                <ele>128.500000</ele>
                <time>2013-09-28T08:38:00Z</time>
            </trkpt>
            <trkpt lon="99.557380" lat="14.380017">
                <ele>127.000000</ele>
                <time>2013-09-28T08:38:15Z</time>
            </trkpt>
            <trkpt lon="99.557141" lat="14.378879">
                <ele>125.600000</ele>
                <time>2013-09-28T08:38:29Z</time>
            </trkpt>
            <trkpt lon="99.555745" lat="14.376193">
                <ele>125.100000</ele>
                <time>2013-09-28T08:39:11Z</time>
            </trkpt>
            <trkpt lon="99.555419" lat="14.375963">
                <ele>124.600000</ele>
                <time>2013-09-28T08:39:18Z</time>
            </trkpt>
            <trkpt lon="99.553207" lat="14.376408">
                <ele>129.900000</ele>
                <time>2013-09-28T08:40:06Z</time>
            </trkpt>
            <trkpt lon="99.553089" lat="14.376184">
                <ele>130.400000</ele>
                <time>2013-09-28T08:40:12Z</time>
            </trkpt>
            <trkpt lon="99.553319" lat="14.373886">
                <ele>127.000000</ele>
                <time>2013-09-28T08:40:51Z</time>
            </trkpt>
            <trkpt lon="99.553126" lat="14.372716">
                <ele>126.600000</ele>
                <time>2013-09-28T08:41:11Z</time>
            </trkpt>
            <trkpt lon="99.552870" lat="14.372445">
                <ele>126.600000</ele>
                <time>2013-09-28T08:41:18Z</time>
            </trkpt>
            <trkpt lon="99.551992" lat="14.372292">
                <ele>127.000000</ele>
                <time>2013-09-28T08:41:33Z</time>
            </trkpt>
            <trkpt lon="99.550779" lat="14.371451">
                <ele>125.600000</ele>
                <time>2013-09-28T08:41:56Z</time>
            </trkpt>
            <trkpt lon="99.550693" lat="14.371121">
                <ele>125.100000</ele>
                <time>2013-09-28T08:42:02Z</time>
            </trkpt>
            <trkpt lon="99.550957" lat="14.369983">
                <ele>124.200000</ele>
                <time>2013-09-28T08:42:20Z</time>
            </trkpt>
            <trkpt lon="99.549030" lat="14.370076">
                <ele>126.600000</ele>
                <time>2013-09-28T08:42:58Z</time>
            </trkpt>
            <trkpt lon="99.548929" lat="14.369962">
                <ele>126.100000</ele>
                <time>2013-09-28T08:50:55Z</time>
            </trkpt>
            <trkpt lon="99.548891" lat="14.370122">
                <ele>125.600000</ele>
                <time>2013-09-28T09:00:47Z</time>
            </trkpt>
            <trkpt lon="99.546167" lat="14.370300">
                <ele>128.500000</ele>
                <time>2013-09-28T09:01:58Z</time>
            </trkpt>
            <trkpt lon="99.544512" lat="14.370763">
                <ele>130.400000</ele>
                <time>2013-09-28T09:02:30Z</time>
            </trkpt>
            <trkpt lon="99.541346" lat="14.371816">
                <ele>130.900000</ele>
                <time>2013-09-28T09:03:29Z</time>
            </trkpt>
            <trkpt lon="99.541398" lat="14.370980">
                <ele>126.600000</ele>
                <time>2013-09-28T09:03:52Z</time>
            </trkpt>
            <trkpt lon="99.541069" lat="14.368923">
                <ele>128.500000</ele>
                <time>2013-09-28T09:04:50Z</time>
            </trkpt>
            <trkpt lon="99.538243" lat="14.369198">
                <ele>125.100000</ele>
                <time>2013-09-28T09:05:49Z</time>
            </trkpt>
            <trkpt lon="99.537301" lat="14.369491">
                <ele>122.700000</ele>
                <time>2013-09-28T09:06:06Z</time>
            </trkpt>
            <trkpt lon="99.536428" lat="14.369492">
                <ele>124.200000</ele>
                <time>2013-09-28T09:06:25Z</time>
            </trkpt>
            <trkpt lon="99.536293" lat="14.368157">
                <ele>124.200000</ele>
                <time>2013-09-28T09:06:53Z</time>
            </trkpt>
            <trkpt lon="99.535609" lat="14.366482">
                <ele>126.100000</ele>
                <time>2013-09-28T09:07:30Z</time>
            </trkpt>
            <trkpt lon="99.535446" lat="14.366315">
                <ele>125.100000</ele>
                <time>2013-09-28T09:07:36Z</time>
            </trkpt>
            <trkpt lon="99.534671" lat="14.366509">
                <ele>125.600000</ele>
                <time>2013-09-28T09:07:54Z</time>
            </trkpt>
            <trkpt lon="99.534158" lat="14.365386">
                <ele>130.400000</ele>
                <time>2013-09-28T09:08:33Z</time>
            </trkpt>
            <trkpt lon="99.533599" lat="14.363613">
                <ele>133.800000</ele>
                <time>2013-09-28T09:09:29Z</time>
            </trkpt>
            <trkpt lon="99.532891" lat="14.362151">
                <ele>139.100000</ele>
                <time>2013-09-28T09:10:20Z</time>
            </trkpt>
            <trkpt lon="99.532717" lat="14.361223">
                <ele>139.100000</ele>
                <time>2013-09-28T09:10:50Z</time>
            </trkpt>
            <trkpt lon="99.532221" lat="14.360537">
                <ele>142.900000</ele>
                <time>2013-09-28T09:11:59Z</time>
            </trkpt>
            <trkpt lon="99.531385" lat="14.360671">
                <ele>157.300000</ele>
                <time>2013-09-28T09:14:42Z</time>
            </trkpt>
            <trkpt lon="99.531102" lat="14.360834">
                <ele>160.700000</ele>
                <time>2013-09-28T09:15:19Z</time>
            </trkpt>
            <trkpt lon="99.531012" lat="14.360893">
                <ele>161.600000</ele>
                <time>2013-09-28T09:15:32Z</time>
            </trkpt>
            <trkpt lon="99.530677" lat="14.361664">
                <ele>154.900000</ele>
                <time>2013-09-28T09:16:05Z</time>
            </trkpt>
            <trkpt lon="99.528863" lat="14.362088">
                <ele>141.000000</ele>
                <time>2013-09-28T09:16:45Z</time>
            </trkpt>
            <trkpt lon="99.528570" lat="14.362261">
                <ele>138.600000</ele>
                <time>2013-09-28T09:16:55Z</time>
            </trkpt>
            <trkpt lon="99.528295" lat="14.362655">
                <ele>138.100000</ele>
                <time>2013-09-28T09:17:07Z</time>
            </trkpt>
            <trkpt lon="99.527312" lat="14.363174">
                <ele>138.100000</ele>
                <time>2013-09-28T09:17:30Z</time>
            </trkpt>
            <trkpt lon="99.526591" lat="14.363107">
                <ele>132.300000</ele>
                <time>2013-09-28T09:17:46Z</time>
            </trkpt>
            <trkpt lon="99.526055" lat="14.363441">
                <ele>129.400000</ele>
                <time>2013-09-28T09:18:01Z</time>
            </trkpt>
            <trkpt lon="99.525645" lat="14.363889">
                <ele>130.400000</ele>
                <time>2013-09-28T09:20:17Z</time>
            </trkpt>
            <trkpt lon="99.525414" lat="14.364042">
                <ele>129.900000</ele>
                <time>2013-09-28T09:20:23Z</time>
            </trkpt>
            <trkpt lon="99.525021" lat="14.364124">
                <ele>129.000000</ele>
                <time>2013-09-28T09:20:31Z</time>
            </trkpt>
            <trkpt lon="99.524119" lat="14.364418">
                <ele>122.700000</ele>
                <time>2013-09-28T09:31:22Z</time>
            </trkpt>
            <trkpt lon="99.523351" lat="14.365176">
                <ele>118.900000</ele>
                <time>2013-09-28T09:31:47Z</time>
            </trkpt>
            <trkpt lon="99.522427" lat="14.366509">
                <ele>115.500000</ele>
                <time>2013-09-28T09:32:17Z</time>
            </trkpt>
            <trkpt lon="99.522345" lat="14.366169">
                <ele>114.500000</ele>
                <time>2013-09-28T09:32:26Z</time>
            </trkpt>
            <trkpt lon="99.521882" lat="14.365716">
                <ele>116.500000</ele>
                <time>2013-09-28T09:32:38Z</time>
            </trkpt>
            <trkpt lon="99.521661" lat="14.365217">
                <ele>119.800000</ele>
                <time>2013-09-28T09:32:53Z</time>
            </trkpt>
            <trkpt lon="99.521895" lat="14.364667">
                <ele>120.300000</ele>
                <time>2013-09-28T09:33:11Z</time>
            </trkpt>
            <trkpt lon="99.521691" lat="14.364098">
                <ele>122.200000</ele>
                <time>2013-09-28T09:33:27Z</time>
            </trkpt>
            <trkpt lon="99.521546" lat="14.363733">
                <ele>122.700000</ele>
                <time>2013-09-28T09:33:37Z</time>
            </trkpt>
            <trkpt lon="99.521087" lat="14.363611">
                <ele>123.700000</ele>
                <time>2013-09-28T09:33:50Z</time>
            </trkpt>
            <trkpt lon="99.520622" lat="14.363628">
                <ele>121.700000</ele>
                <time>2013-09-28T09:34:01Z</time>
            </trkpt>
            <trkpt lon="99.520386" lat="14.363397">
                <ele>119.300000</ele>
                <time>2013-09-28T09:34:07Z</time>
            </trkpt>
            <trkpt lon="99.519543" lat="14.361700">
                <ele>112.600000</ele>
                <time>2013-09-28T09:34:35Z</time>
            </trkpt>
            <trkpt lon="99.519292" lat="14.361520">
                <ele>112.100000</ele>
                <time>2013-09-28T09:34:41Z</time>
            </trkpt>
            <trkpt lon="99.518648" lat="14.361663">
                <ele>110.200000</ele>
                <time>2013-09-28T09:34:52Z</time>
            </trkpt>
            <trkpt lon="99.517713" lat="14.360926">
                <ele>105.900000</ele>
                <time>2013-09-28T09:35:12Z</time>
            </trkpt>
            <trkpt lon="99.517336" lat="14.360964">
                <ele>104.900000</ele>
                <time>2013-09-28T09:35:20Z</time>
            </trkpt>
            <trkpt lon="99.517159" lat="14.360909">
                <ele>104.000000</ele>
                <time>2013-09-28T09:35:24Z</time>
            </trkpt>
            <trkpt lon="99.516062" lat="14.359080">
                <ele>102.000000</ele>
                <time>2013-09-28T09:36:05Z</time>
            </trkpt>
            <trkpt lon="99.515779" lat="14.358981">
                <ele>101.100000</ele>
                <time>2013-09-28T09:36:11Z</time>
            </trkpt>
            <trkpt lon="99.515241" lat="14.359035">
                <ele>99.200000</ele>
                <time>2013-09-28T09:36:22Z</time>
            </trkpt>
            <trkpt lon="99.515134" lat="14.358437">
                <ele>100.600000</ele>
                <time>2013-09-28T09:36:44Z</time>
            </trkpt>
            <trkpt lon="99.515556" lat="14.357497">
                <ele>103.500000</ele>
                <time>2013-09-28T09:37:18Z</time>
            </trkpt>
            <trkpt lon="99.515498" lat="14.357274">
                <ele>104.900000</ele>
                <time>2013-09-28T09:37:43Z</time>
            </trkpt>
            <trkpt lon="99.515347" lat="14.357129">
                <ele>103.000000</ele>
                <time>2013-09-28T09:37:51Z</time>
            </trkpt>
            <trkpt lon="99.515211" lat="14.357178">
                <ele>102.500000</ele>
                <time>2013-09-28T09:37:54Z</time>
            </trkpt>
            <trkpt lon="99.515001" lat="14.357169">
                <ele>100.100000</ele>
                <time>2013-09-28T09:37:58Z</time>
            </trkpt>
            <trkpt lon="99.513735" lat="14.356565">
                <ele>96.800000</ele>
                <time>2013-09-28T09:38:20Z</time>
            </trkpt>
            <trkpt lon="99.513617" lat="14.356102">
                <ele>99.600000</ele>
                <time>2013-09-28T09:38:32Z</time>
            </trkpt>
            <trkpt lon="99.513518" lat="14.355982">
                <ele>99.200000</ele>
                <time>2013-09-28T09:38:36Z</time>
            </trkpt>
            <trkpt lon="99.512940" lat="14.355474">
                <ele>94.800000</ele>
                <time>2013-09-28T09:38:49Z</time>
            </trkpt>
            <trkpt lon="99.512940" lat="14.355090">
                <ele>99.200000</ele>
                <time>2013-09-28T09:39:02Z</time>
            </trkpt>
            <trkpt lon="99.512670" lat="14.353496">
                <ele>98.200000</ele>
                <time>2013-09-28T09:39:40Z</time>
            </trkpt>
            <trkpt lon="99.512772" lat="14.352859">
                <ele>98.700000</ele>
                <time>2013-09-28T09:40:00Z</time>
            </trkpt>
            <trkpt lon="99.512549" lat="14.352794">
                <ele>99.200000</ele>
                <time>2013-09-28T09:40:12Z</time>
            </trkpt>
            <trkpt lon="99.512448" lat="14.352332">
                <ele>100.600000</ele>
                <time>2013-09-28T09:40:27Z</time>
            </trkpt>
            <trkpt lon="99.510853" lat="14.352462">
                <ele>97.200000</ele>
                <time>2013-09-28T09:40:56Z</time>
            </trkpt>
            <trkpt lon="99.510553" lat="14.352719">
                <ele>95.800000</ele>
                <time>2013-09-28T09:41:02Z</time>
            </trkpt>
            <trkpt lon="99.510555" lat="14.353151">
                <ele>94.400000</ele>
                <time>2013-09-28T09:41:08Z</time>
            </trkpt>
            <trkpt lon="99.510372" lat="14.353397">
                <ele>94.400000</ele>
                <time>2013-09-28T09:41:14Z</time>
            </trkpt>
            <trkpt lon="99.510070" lat="14.353435">
                <ele>93.900000</ele>
                <time>2013-09-28T09:41:19Z</time>
            </trkpt>
            <trkpt lon="99.509603" lat="14.353371">
                <ele>93.900000</ele>
                <time>2013-09-28T09:41:38Z</time>
            </trkpt>
            <trkpt lon="99.509471" lat="14.353112">
                <ele>94.800000</ele>
                <time>2013-09-28T09:41:47Z</time>
            </trkpt>
            <trkpt lon="99.509025" lat="14.352345">
                <ele>95.300000</ele>
                <time>2013-09-28T09:42:04Z</time>
            </trkpt>
            <trkpt lon="99.508747" lat="14.352255">
                <ele>95.300000</ele>
                <time>2013-09-28T09:42:10Z</time>
            </trkpt>
            <trkpt lon="99.508199" lat="14.352504">
                <ele>95.800000</ele>
                <time>2013-09-28T09:42:20Z</time>
            </trkpt>
            <trkpt lon="99.507813" lat="14.352564">
                <ele>95.300000</ele>
                <time>2013-09-28T09:42:26Z</time>
            </trkpt>
            <trkpt lon="99.506951" lat="14.352406">
                <ele>94.800000</ele>
                <time>2013-09-28T09:42:38Z</time>
            </trkpt>
            <trkpt lon="99.506490" lat="14.352624">
                <ele>95.300000</ele>
                <time>2013-09-28T09:42:45Z</time>
            </trkpt>
            <trkpt lon="99.505737" lat="14.353953">
                <ele>94.800000</ele>
                <time>2013-09-28T09:43:05Z</time>
            </trkpt>
            <trkpt lon="99.505348" lat="14.354065">
                <ele>95.300000</ele>
                <time>2013-09-28T09:43:11Z</time>
            </trkpt>
            <trkpt lon="99.503280" lat="14.353391">
                <ele>94.800000</ele>
                <time>2013-09-28T09:43:38Z</time>
            </trkpt>
            <trkpt lon="99.502973" lat="14.352998">
                <ele>95.300000</ele>
                <time>2013-09-28T09:43:45Z</time>
            </trkpt>
            <trkpt lon="99.502991" lat="14.351931">
                <ele>95.300000</ele>
                <time>2013-09-28T09:43:59Z</time>
            </trkpt>
            <trkpt lon="99.502827" lat="14.351429">
                <ele>95.800000</ele>
                <time>2013-09-28T09:44:06Z</time>
            </trkpt>
            <trkpt lon="99.502596" lat="14.351147">
                <ele>95.800000</ele>
                <time>2013-09-28T09:44:11Z</time>
            </trkpt>
            <trkpt lon="99.500975" lat="14.350300">
                <ele>95.800000</ele>
                <time>2013-09-28T09:44:36Z</time>
            </trkpt>
            <trkpt lon="99.499851" lat="14.350079">
                <ele>95.300000</ele>
                <time>2013-09-28T09:44:51Z</time>
            </trkpt>
            <trkpt lon="99.499171" lat="14.350339">
                <ele>95.300000</ele>
                <time>2013-09-28T09:45:01Z</time>
            </trkpt>
            <trkpt lon="99.498505" lat="14.351280">
                <ele>95.300000</ele>
                <time>2013-09-28T09:45:16Z</time>
            </trkpt>
            <trkpt lon="99.497814" lat="14.351691">
                <ele>95.300000</ele>
                <time>2013-09-28T09:45:27Z</time>
            </trkpt>
            <trkpt lon="99.497604" lat="14.351893">
                <ele>94.800000</ele>
                <time>2013-09-28T09:45:31Z</time>
            </trkpt>
            <trkpt lon="99.497533" lat="14.352700">
                <ele>95.800000</ele>
                <time>2013-09-28T09:45:43Z</time>
            </trkpt>
            <trkpt lon="99.497853" lat="14.353161">
                <ele>94.800000</ele>
                <time>2013-09-28T09:45:51Z</time>
            </trkpt>
            <trkpt lon="99.497946" lat="14.353710">
                <ele>95.800000</ele>
                <time>2013-09-28T09:45:59Z</time>
            </trkpt>
            <trkpt lon="99.497712" lat="14.354083">
                <ele>96.800000</ele>
                <time>2013-09-28T09:46:06Z</time>
            </trkpt>
            <trkpt lon="99.497338" lat="14.354357">
                <ele>97.200000</ele>
                <time>2013-09-28T09:46:13Z</time>
            </trkpt>
            <trkpt lon="99.497132" lat="14.354734">
                <ele>96.300000</ele>
                <time>2013-09-28T09:46:19Z</time>
            </trkpt>
            <trkpt lon="99.497079" lat="14.355419">
                <ele>94.800000</ele>
                <time>2013-09-28T09:46:27Z</time>
            </trkpt>
            <trkpt lon="99.497332" lat="14.356362">
                <ele>94.800000</ele>
                <time>2013-09-28T09:46:39Z</time>
            </trkpt>
            <trkpt lon="99.497516" lat="14.356916">
                <ele>95.300000</ele>
                <time>2013-09-28T09:46:47Z</time>
            </trkpt>
            <trkpt lon="99.498239" lat="14.357595">
                <ele>95.800000</ele>
                <time>2013-09-28T09:47:01Z</time>
            </trkpt>
            <trkpt lon="99.498971" lat="14.358175">
                <ele>93.900000</ele>
                <time>2013-09-28T09:47:14Z</time>
            </trkpt>
            <trkpt lon="99.500333" lat="14.357744">
                <ele>92.400000</ele>
                <time>2013-09-28T09:47:32Z</time>
            </trkpt>
            <trkpt lon="99.500773" lat="14.357414">
                <ele>92.900000</ele>
                <time>2013-09-28T09:47:40Z</time>
            </trkpt>
            <trkpt lon="99.501215" lat="14.356247">
                <ele>92.900000</ele>
                <time>2013-09-28T09:48:02Z</time>
            </trkpt>
            <trkpt lon="99.501059" lat="14.356006">
                <ele>92.900000</ele>
                <time>2013-09-28T09:48:09Z</time>
            </trkpt>
            <trkpt lon="99.500663" lat="14.355697">
                <ele>91.900000</ele>
                <time>2013-09-28T09:48:22Z</time>
            </trkpt>
            <trkpt lon="99.500722" lat="14.355541">
                <ele>91.900000</ele>
                <time>2013-09-28T09:48:31Z</time>
            </trkpt>
            <trkpt lon="99.500725" lat="14.355542">
                <ele>91.000000</ele>
                <time>2013-09-28T09:49:58Z</time>
            </trkpt>
        </trkseg>
    </trk>
</gpx>